sim
Sign-in with your pilot id or email,
or register
Callsign
Passwort

Schedule Details

Flight Number: RYR546 (1)
Departure: Gothenburg Landvetter Airport (ESGG) at 10:30
Arrival: Warsaw Modlin Airport (EPMO) at 11:55
Route: Ryanair Passenger Schedule. Enter filed route here before submitting Pirep.

Weather Information
Getting current METAR information for ESGG 200250Z 14010KT 9999 SCT038 04/03 Q1015
Getting current METAR information for EPMO 200300Z 25005KT 1100 R08/0350D BCFG BR NSC 03/03 Q1024

Schedule Frequency

Route Map